createdAt,value
2022-09-26T00:01:37.717Z,65.24
2022-09-26T00:04:08.291Z,65.54
2022-09-26T00:06:35.733Z,65.37
2022-09-26T00:09:18.118Z,65.30
2022-09-26T00:11:45.302Z,65.49
2022-09-26T00:14:18.801Z,65.37
2022-09-26T00:16:47.157Z,64.72
2022-09-26T00:19:14.484Z,65.10
2022-09-26T00:21:43.393Z,64.68
2022-09-26T00:24:11.330Z,64.43
2022-09-26T00:26:38.534Z,63.86
2022-09-26T00:29:08.971Z,63.84
2022-09-26T00:31:40.829Z,63.78
2022-09-26T00:34:07.877Z,63.98
2022-09-26T00:36:38.366Z,63.89
2022-09-26T00:39:07.987Z,63.88
2022-09-26T00:41:36.301Z,65.48
2022-09-26T00:44:42.771Z,65.14
2022-09-26T00:47:23.500Z,65.51
2022-09-26T00:49:56.350Z,65.48
2022-09-26T00:52:31.067Z,65.47
2022-09-26T00:55:02.446Z,64.95
2022-09-26T00:57:36.421Z,65.11
2022-09-26T01:00:09.050Z,65.10
2022-09-26T01:02:37.186Z,64.54
2022-09-26T01:05:06.228Z,64.73
2022-09-26T01:07:33.885Z,64.86
2022-09-26T01:10:05.008Z,66.12
2022-09-26T01:12:32.112Z,65.77
2022-09-26T01:15:01.606Z,65.53
2022-09-26T01:17:30.747Z,65.61
2022-09-26T01:20:30.941Z,65.46
2022-09-26T01:23:20.412Z,66.38
2022-09-26T01:26:18.273Z,66.13
2022-09-26T01:28:53.113Z,66.52
2022-09-26T01:31:41.730Z,65.96
2022-09-26T01:34:42.117Z,65.22
2022-09-26T01:37:10.763Z,64.43
2022-09-26T01:39:55.458Z,64.65
2022-09-26T01:43:08.244Z,64.46
2022-09-26T01:45:58.542Z,65.40
2022-09-26T01:48:32.436Z,65.55
2022-09-26T01:51:10.091Z,65.40
2022-09-26T01:53:47.120Z,64.88
2022-09-26T01:56:18.703Z,64.29
2022-09-26T01:58:58.670Z,64.49
2022-09-26T02:01:34.268Z,64.44
2022-09-26T02:04:09.600Z,64.75
2022-09-26T02:06:48.153Z,64.69
2022-09-26T02:09:26.174Z,64.39
2022-09-26T02:12:04.052Z,64.13
2022-09-26T02:14:37.449Z,64.25
2022-09-26T02:17:11.782Z,64.55
2022-09-26T02:19:59.766Z,65.23
2022-09-26T02:22:31.867Z,65.18
2022-09-26T02:25:00.806Z,64.47
2022-09-26T02:27:29.463Z,65.56
2022-09-26T02:29:59.441Z,65.97
2022-09-26T02:32:29.875Z,65.65
2022-09-26T02:34:58.386Z,65.55
2022-09-26T02:37:28.740Z,65.21
2022-09-26T02:39:56.855Z,64.74
2022-09-26T02:42:40.205Z,64.97
2022-09-26T02:45:37.396Z,64.97
2022-09-26T02:48:23.860Z,64.77
2022-09-26T02:51:08.252Z,65.00
2022-09-26T02:54:14.170Z,64.83
2022-09-26T02:56:58.703Z,64.60
2022-09-26T02:59:57.720Z,64.36
2022-09-26T03:02:46.796Z,64.64
2022-09-26T03:05:23.698Z,64.42
2022-09-26T03:08:18.592Z,64.62
2022-09-26T03:10:49.220Z,65.02
2022-09-26T03:13:19.083Z,64.63
2022-09-26T03:15:56.608Z,64.63
2022-09-26T03:18:37.747Z,64.59
2022-09-26T03:21:04.914Z,64.99
2022-09-26T03:23:31.730Z,64.72
2022-09-26T03:26:18.939Z,64.61
2022-09-26T03:28:58.022Z,64.77
2022-09-26T03:31:28.306Z,64.36
2022-09-26T03:34:06.607Z,64.62
2022-09-26T03:36:34.173Z,64.79
2022-09-26T03:39:05.034Z,64.70
2022-09-26T03:41:39.481Z,65.33
2022-09-26T03:44:26.633Z,65.17
2022-09-26T03:47:11.708Z,65.08
2022-09-26T03:49:41.723Z,65.33
2022-09-26T03:52:12.979Z,64.99
2022-09-26T03:54:41.920Z,64.66
2022-09-26T03:57:15.389Z,64.58
2022-09-26T03:59:48.367Z,64.92
2022-09-26T04:02:17.149Z,64.57
2022-09-26T04:04:49.267Z,64.36
2022-09-26T04:07:20.225Z,64.77
2022-09-26T04:09:49.370Z,64.57
2022-09-26T04:12:17.274Z,65.10
2022-09-26T04:14:44.377Z,65.12
2022-09-26T04:17:13.418Z,65.12
2022-09-26T04:19:45.496Z,65.13
2022-09-26T04:22:12.629Z,64.49
2022-09-26T04:24:39.519Z,65.20
2022-09-26T04:27:13.283Z,64.58
2022-09-26T04:29:54.442Z,64.29
2022-09-26T04:32:30.729Z,64.05
2022-09-26T04:35:36.102Z,64.24
2022-09-26T04:38:04.596Z,63.96
2022-09-26T04:40:34.696Z,64.30
2022-09-26T04:43:06.887Z,64.63
2022-09-26T04:45:33.640Z,64.41
2022-09-26T04:48:01.705Z,64.51
2022-09-26T04:50:44.725Z,64.55
2022-09-26T04:53:12.249Z,64.72
2022-09-26T04:55:54.757Z,64.89
2022-09-26T04:58:22.755Z,64.92
2022-09-26T05:00:50.896Z,64.84
2022-09-26T05:03:29.365Z,65.13
2022-09-26T05:05:56.667Z,64.95
2022-09-26T05:08:23.726Z,65.13
2022-09-26T05:10:57.699Z,64.89
2022-09-26T05:13:26.190Z,64.80
2022-09-26T05:15:55.306Z,65.09
2022-09-26T05:18:29.187Z,64.80
2022-09-26T05:20:57.925Z,64.71
2022-09-26T05:23:45.394Z,65.21
2022-09-26T05:26:26.159Z,65.29
2022-09-26T05:29:17.053Z,65.93
2022-09-26T05:31:56.659Z,65.79
2022-09-26T05:34:26.369Z,65.26
2022-09-26T05:36:56.728Z,65.39
2022-09-26T05:39:44.576Z,65.16
2022-09-26T05:42:12.934Z,65.35
2022-09-26T05:44:43.657Z,64.91
2022-09-26T05:47:11.602Z,65.11
2022-09-26T05:49:38.450Z,65.44
2022-09-26T05:52:08.699Z,65.02
2022-09-26T05:54:39.557Z,65.10
2022-09-26T05:57:26.215Z,64.79
2022-09-26T05:59:59.509Z,64.32
2022-09-26T06:02:46.605Z,63.11
2022-09-26T06:05:26.476Z,62.62
2022-09-26T06:08:12.139Z,61.47
2022-09-26T06:10:44.405Z,60.09
2022-09-26T06:13:15.288Z,59.13
2022-09-26T06:15:50.799Z,58.99
2022-09-26T06:18:17.776Z,58.23
2022-09-26T06:20:47.056Z,57.48
2022-09-26T06:23:14.587Z,56.00
2022-09-26T06:25:45.019Z,55.16
2022-09-26T06:28:13.348Z,53.81
2022-09-26T06:30:40.097Z,53.08
2022-09-26T06:33:17.335Z,51.31
2022-09-26T06:36:00.634Z,49.67
2022-09-26T06:38:33.570Z,48.27
2022-09-26T06:41:00.415Z,47.55
2022-09-26T06:43:27.763Z,47.47
2022-09-26T06:46:15.995Z,47.29
2022-09-26T06:48:55.213Z,47.42
2022-09-26T06:51:40.808Z,46.47
2022-09-26T06:54:08.585Z,44.38
2022-09-26T06:56:38.764Z,43.45
2022-09-26T06:59:05.640Z,44.82
2022-09-26T07:01:35.432Z,45.70
2022-09-26T07:04:20.931Z,47.23
2022-09-26T07:07:02.707Z,48.62
2022-09-26T07:09:33.563Z,49.35
2022-09-26T07:12:15.737Z,49.27
2022-09-26T07:14:48.890Z,48.47
2022-09-26T07:17:30.870Z,47.44
2022-09-26T07:20:18.553Z,48.54
2022-09-26T07:23:10.855Z,49.77
2022-09-26T07:25:39.817Z,49.09
2022-09-26T07:28:41.807Z,48.97
2022-09-26T07:31:17.765Z,49.01
2022-09-26T07:34:05.619Z,48.04
2022-09-26T07:36:32.295Z,47.74
2022-09-26T07:39:01.146Z,47.03
2022-09-26T07:41:31.139Z,46.44
2022-09-26T07:47:07.724Z,43.63
2022-09-26T07:49:54.818Z,42.76
2022-09-26T07:52:43.748Z,43.04
2022-09-26T07:55:26.248Z,44.91
2022-09-26T07:58:01.947Z,47.23
2022-09-26T08:01:15.041Z,49.07
2022-09-26T08:04:11.252Z,50.31
2022-09-26T08:06:40.094Z,51.17
2022-09-26T08:09:08.844Z,51.97
2022-09-26T08:11:55.786Z,51.26
2022-09-26T08:14:36.421Z,50.75
2022-09-26T08:17:19.880Z,49.99
2022-09-26T08:19:47.312Z,50.12
2022-09-26T08:22:14.584Z,50.29
2022-09-26T08:24:46.193Z,49.91
2022-09-26T08:27:18.328Z,48.08
2022-09-26T08:29:51.164Z,43.32
2022-09-26T08:32:21.312Z,37.50
2022-09-26T08:34:52.532Z,34.06
2022-09-26T08:37:33.130Z,32.66
2022-09-26T08:40:28.680Z,31.92
2022-09-26T08:43:56.215Z,30.66
2022-09-26T08:47:17.755Z,28.91
2022-09-26T08:50:28.388Z,28.25
2022-09-26T08:53:01.915Z,27.76
2022-09-26T08:55:37.283Z,28.09
2022-09-26T08:58:29.109Z,28.97
2022-09-26T09:01:05.075Z,27.91
2022-09-26T09:03:55.883Z,28.56
2022-09-26T09:06:26.969Z,27.92
2022-09-26T09:09:01.715Z,26.27
2022-09-26T09:11:53.720Z,24.07
2022-09-26T09:14:57.916Z,22.85
2022-09-26T09:17:55.643Z,22.41
2022-09-26T09:20:52.119Z,23.91
2022-09-26T09:23:45.093Z,26.60
2022-09-26T09:29:25.371Z,31.72
2022-09-26T09:32:18.940Z,32.89
2022-09-26T09:35:18.896Z,33.67
2022-09-26T09:38:24.391Z,34.16
2022-09-26T09:41:38.816Z,35.05
2022-09-26T09:44:34.076Z,36.47
2022-09-26T09:47:11.152Z,37.65
2022-09-26T09:49:38.027Z,37.51
2022-09-26T09:52:29.501Z,37.39
2022-09-26T09:55:08.844Z,37.57
2022-09-26T09:58:09.963Z,36.59
2022-09-26T10:01:39.074Z,36.39
2022-09-26T10:04:37.431Z,36.94
2022-09-26T10:07:05.466Z,37.25
2022-09-26T10:09:41.862Z,36.70
2022-09-26T10:12:32.889Z,37.04
2022-09-26T10:15:20.762Z,35.88
2022-09-26T10:18:26.794Z,35.92
2022-09-26T10:21:17.841Z,36.12
2022-09-26T10:23:50.353Z,36.19
2022-09-26T10:26:39.290Z,34.36
2022-09-26T10:29:24.964Z,33.29
2022-09-26T10:31:57.269Z,32.26
2022-09-26T10:34:24.082Z,31.78
2022-09-26T10:36:50.792Z,32.04
2022-09-26T10:39:48.988Z,33.64
2022-09-26T10:42:22.872Z,35.52
2022-09-26T10:44:57.514Z,36.40
2022-09-26T10:48:06.140Z,37.02
2022-09-26T10:51:02.799Z,36.78
2022-09-26T10:53:40.340Z,37.91
2022-09-26T10:56:11.974Z,38.69
2022-09-26T10:58:42.634Z,37.95
2022-09-26T11:01:26.418Z,38.62
2022-09-26T11:03:56.390Z,38.71
2022-09-26T11:06:35.906Z,39.36
2022-09-26T11:09:11.883Z,39.02
2022-09-26T11:11:58.631Z,39.13
2022-09-26T11:14:31.176Z,38.37
2022-09-26T11:17:03.255Z,38.74
2022-09-26T11:19:54.981Z,38.83
2022-09-26T11:22:37.350Z,38.68
2022-09-26T11:25:25.933Z,39.26
2022-09-26T11:31:22.822Z,38.70
2022-09-26T11:37:31.606Z,40.25
2022-09-26T11:40:10.038Z,40.64
2022-09-26T11:42:56.779Z,40.87
2022-09-26T11:45:40.827Z,41.60
2022-09-26T11:48:52.813Z,41.66
2022-09-26T11:52:03.441Z,42.51
2022-09-26T11:54:40.197Z,43.17
2022-09-26T11:57:31.925Z,43.29
2022-09-26T12:00:15.668Z,42.67
2022-09-26T12:03:29.861Z,42.69
2022-09-26T12:06:02.693Z,42.50
2022-09-26T12:09:00.539Z,42.63
2022-09-26T12:12:05.922Z,41.94
2022-09-26T12:14:36.037Z,41.50
2022-09-26T12:17:18.771Z,41.76
2022-09-26T12:20:01.040Z,41.18
2022-09-26T12:22:47.986Z,40.38
2022-09-26T12:25:26.906Z,40.36
2022-09-26T12:28:03.403Z,40.64
2022-09-26T12:30:37.668Z,40.50
2022-09-26T12:33:29.615Z,40.43
2022-09-26T12:36:08.988Z,40.68
2022-09-26T12:38:44.791Z,41.02
2022-09-26T12:41:23.210Z,40.68
2022-09-26T12:44:08.680Z,41.04
2022-09-26T12:46:38.015Z,41.73
2022-09-26T12:49:07.485Z,41.27
2022-09-26T12:51:59.005Z,40.59
2022-09-26T12:54:44.160Z,40.99
2022-09-26T12:57:29.347Z,40.20
2022-09-26T13:00:17.142Z,39.59
2022-09-26T13:02:56.622Z,39.39
2022-09-26T13:05:50.903Z,39.36
2022-09-26T13:09:01.492Z,39.19
2022-09-26T13:11:37.041Z,38.71
2022-09-26T13:14:10.665Z,38.49
2022-09-26T13:17:13.465Z,39.09
2022-09-26T13:19:51.627Z,38.60
2022-09-26T13:22:32.900Z,38.40
2022-09-26T13:25:07.922Z,38.66
2022-09-26T13:27:41.137Z,39.17
2022-09-26T13:30:13.952Z,39.25
2022-09-26T13:32:47.579Z,38.81
2022-09-26T13:35:22.200Z,39.07
2022-09-26T13:38:10.103Z,39.05
2022-09-26T13:40:55.110Z,40.05
2022-09-26T13:43:34.631Z,40.00
2022-09-26T13:46:06.378Z,40.67
2022-09-26T13:48:50.129Z,41.02
2022-09-26T13:51:18.411Z,41.02
2022-09-26T13:53:55.900Z,41.09
2022-09-26T13:56:34.921Z,41.36
2022-09-26T13:59:08.246Z,41.27
2022-09-26T14:01:36.385Z,41.40
2022-09-26T14:04:32.351Z,41.20
2022-09-26T14:07:38.483Z,41.34
2022-09-26T14:10:18.131Z,40.72
2022-09-26T14:13:08.094Z,40.34
2022-09-26T14:15:46.978Z,40.51
2022-09-26T14:18:47.174Z,41.21
2022-09-26T14:21:16.680Z,41.60
2022-09-26T14:23:44.536Z,41.63
2022-09-26T14:26:26.347Z,41.93
2022-09-26T14:28:55.580Z,41.87
2022-09-26T14:31:24.978Z,41.44
2022-09-26T14:34:24.953Z,41.37
2022-09-26T14:36:53.479Z,40.58
2022-09-26T14:39:28.337Z,40.85
2022-09-26T14:41:56.202Z,40.41
2022-09-26T14:44:23.433Z,40.61
2022-09-26T14:46:53.335Z,40.62
2022-09-26T14:49:24.397Z,41.09
2022-09-26T14:51:59.356Z,41.61
2022-09-26T14:54:39.746Z,41.81
2022-09-26T14:57:20.621Z,41.96
2022-09-26T14:59:48.271Z,41.90
2022-09-26T15:02:25.788Z,42.22
2022-09-26T15:05:06.590Z,41.98
2022-09-26T15:07:40.903Z,42.39
2022-09-26T15:10:21.639Z,42.39
2022-09-26T15:12:56.572Z,42.61
2022-09-26T15:15:39.138Z,43.50
2022-09-26T15:18:27.852Z,43.48
2022-09-26T15:21:04.627Z,44.09
2022-09-26T15:23:34.153Z,44.79
2022-09-26T15:26:02.730Z,44.83
2022-09-26T15:28:34.618Z,44.96
2022-09-26T15:31:22.422Z,45.26
2022-09-26T15:34:11.256Z,45.57
2022-09-26T15:36:39.905Z,48.84
2022-09-26T15:39:26.576Z,50.29
2022-09-26T15:42:11.939Z,50.92
2022-09-26T15:44:48.240Z,52.43
2022-09-26T15:47:30.075Z,53.33
2022-09-26T15:50:14.728Z,53.55
2022-09-26T15:52:49.856Z,53.55
2022-09-26T15:55:23.845Z,54.57
2022-09-26T15:57:53.248Z,55.10
2022-09-26T16:00:20.241Z,57.44
2022-09-26T16:02:47.263Z,58.54
2022-09-26T16:05:14.725Z,58.23
2022-09-26T16:07:48.693Z,58.76
2022-09-26T16:10:24.104Z,59.71
2022-09-26T16:12:51.076Z,60.02
2022-09-26T16:15:20.763Z,59.95
2022-09-26T16:17:57.977Z,59.72
2022-09-26T16:20:26.857Z,60.93
2022-09-26T16:23:05.547Z,60.04
2022-09-26T16:25:47.719Z,60.83
2022-09-26T16:28:18.027Z,60.65
2022-09-26T16:30:53.423Z,61.61
2022-09-26T16:33:26.262Z,61.42
2022-09-26T16:35:53.262Z,61.12
2022-09-26T16:38:31.123Z,61.60
2022-09-26T16:41:08.423Z,60.84
2022-09-26T16:43:37.516Z,60.57
2022-09-26T16:46:13.451Z,61.23
2022-09-26T16:48:53.945Z,61.51
2022-09-26T16:51:24.149Z,61.51
2022-09-26T16:54:09.122Z,62.48
2022-09-26T16:56:40.335Z,62.09
2022-09-26T16:59:21.451Z,62.27
2022-09-26T17:01:55.685Z,62.47
2022-09-26T17:04:32.738Z,62.87
2022-09-26T17:07:01.557Z,62.42
2022-09-26T17:09:32.685Z,62.84
2022-09-26T17:12:06.370Z,63.14
2022-09-26T17:14:40.791Z,64.41
2022-09-26T17:17:16.194Z,64.28
2022-09-26T17:19:45.247Z,64.28
2022-09-26T17:22:18.400Z,65.21
2022-09-26T17:24:47.167Z,65.01
2022-09-26T17:27:22.641Z,65.07
2022-09-26T17:29:51.468Z,65.75
2022-09-26T17:32:23.598Z,66.02
2022-09-26T17:34:51.584Z,65.49
2022-09-26T17:37:20.446Z,65.88
2022-09-26T17:39:47.267Z,66.24
2022-09-26T17:42:17.076Z,66.26
2022-09-26T17:44:47.590Z,66.27
2022-09-26T17:47:16.046Z,66.36
2022-09-26T17:49:48.698Z,66.58
2022-09-26T17:52:29.081Z,66.53
2022-09-26T17:54:58.555Z,67.01
2022-09-26T17:57:29.927Z,67.01
2022-09-26T17:59:57.631Z,67.42
2022-09-26T18:02:31.589Z,66.98
2022-09-26T18:05:03.181Z,66.99
2022-09-26T18:07:41.371Z,67.53
2022-09-26T18:10:17.316Z,67.83
2022-09-26T18:12:45.187Z,67.70
2022-09-26T18:15:16.070Z,68.40
2022-09-26T18:17:43.471Z,68.86
2022-09-26T18:20:10.185Z,69.05
2022-09-26T18:22:37.045Z,68.61
2022-09-26T18:25:14.903Z,68.81
2022-09-26T18:27:41.700Z,70.00
2022-09-26T18:30:13.658Z,69.69
2022-09-26T18:32:44.098Z,69.68
2022-09-26T18:35:25.300Z,70.20
2022-09-26T18:37:55.194Z,70.45
2022-09-26T18:40:24.415Z,70.12
2022-09-26T18:42:51.871Z,70.12
2022-09-26T18:45:35.818Z,70.68
2022-09-26T18:48:20.274Z,70.68
2022-09-26T18:50:47.268Z,70.16
2022-09-26T18:53:17.236Z,70.47
2022-09-26T18:56:02.834Z,71.25
2022-09-26T18:58:32.157Z,71.66
2022-09-26T19:01:04.976Z,71.86
2022-09-26T19:03:34.926Z,71.67
2022-09-26T19:06:12.700Z,71.54
2022-09-26T19:08:41.640Z,71.32
2022-09-26T19:11:13.643Z,70.83
2022-09-26T19:13:41.473Z,70.87
2022-09-26T19:16:08.853Z,71.91
2022-09-26T19:18:36.535Z,71.67
2022-09-26T19:21:06.200Z,72.25
2022-09-26T19:23:35.655Z,71.20
2022-09-26T19:26:05.555Z,71.79
2022-09-26T19:28:35.886Z,71.57
2022-09-26T19:31:04.081Z,71.63
2022-09-26T19:33:31.033Z,71.72
2022-09-26T19:35:57.815Z,72.09
2022-09-26T19:38:26.489Z,71.91
2022-09-26T19:40:53.903Z,72.67
2022-09-26T19:43:21.752Z,71.81
2022-09-26T19:45:52.178Z,72.04
2022-09-26T19:48:22.017Z,71.94
2022-09-26T19:50:50.874Z,72.57
2022-09-26T19:53:20.397Z,73.38
2022-09-26T19:55:50.762Z,72.24
2022-09-26T19:58:25.493Z,72.76
2022-09-26T20:00:54.627Z,72.82
2022-09-26T20:03:21.277Z,72.02
2022-09-26T20:05:49.624Z,72.49
2022-09-26T20:08:27.342Z,72.43
2022-09-26T20:10:57.908Z,72.28
2022-09-26T20:13:24.667Z,72.31
2022-09-26T20:15:51.661Z,72.83
2022-09-26T20:18:22.215Z,72.47
2022-09-26T20:20:56.782Z,72.14
2022-09-26T20:23:25.999Z,72.83
2022-09-26T20:25:54.390Z,72.93
2022-09-26T20:28:21.394Z,72.50
2022-09-26T20:30:51.367Z,73.32
2022-09-26T20:33:21.757Z,72.67
2022-09-26T20:36:02.949Z,72.71
2022-09-26T20:38:39.191Z,73.43
2022-09-26T20:41:13.536Z,73.27
2022-09-26T20:43:46.705Z,73.50
2022-09-26T20:46:14.782Z,73.28
2022-09-26T20:48:44.787Z,73.42
2022-09-26T20:51:29.948Z,73.14
2022-09-26T20:54:00.614Z,73.60
2022-09-26T20:56:28.280Z,73.25
2022-09-26T20:58:55.199Z,74.39
2022-09-26T21:01:22.416Z,73.42
2022-09-26T21:03:55.164Z,73.52
2022-09-26T21:06:33.195Z,73.26
2022-09-26T21:09:00.593Z,73.40
2022-09-26T21:11:27.387Z,73.40
2022-09-26T21:13:54.074Z,74.00
2022-09-26T21:16:21.826Z,73.64
2022-09-26T21:18:51.940Z,73.89
2022-09-26T21:21:28.229Z,73.66
2022-09-26T21:24:04.478Z,73.83
2022-09-26T21:26:31.615Z,73.84
2022-09-26T21:28:58.443Z,74.43
2022-09-26T21:31:26.866Z,73.57
2022-09-26T21:33:56.246Z,74.10
2022-09-26T21:36:24.065Z,73.71
2022-09-26T21:38:53.764Z,73.92
2022-09-26T21:41:20.592Z,75.08
2022-09-26T21:43:54.927Z,75.98
2022-09-26T21:46:21.745Z,75.17
2022-09-26T21:48:48.856Z,75.10
2022-09-26T21:51:15.890Z,75.16
2022-09-26T21:53:52.707Z,75.10
2022-09-26T21:56:25.570Z,75.37
2022-09-26T21:58:52.952Z,74.39
2022-09-26T22:01:20.363Z,75.04
2022-09-26T22:03:47.159Z,75.01
2022-09-26T22:06:13.887Z,74.44
2022-09-26T22:08:41.036Z,74.82
2022-09-26T22:11:09.000Z,75.14
2022-09-26T22:13:37.263Z,74.97
2022-09-26T22:16:06.575Z,74.82
2022-09-26T22:18:35.686Z,75.15
2022-09-26T22:21:04.732Z,75.36
2022-09-26T22:23:32.589Z,75.30
2022-09-26T22:26:00.028Z,75.41
2022-09-26T22:28:27.224Z,75.29
2022-09-26T22:30:54.636Z,74.70
2022-09-26T22:33:22.574Z,76.08
2022-09-26T22:35:50.448Z,75.04
2022-09-26T22:38:18.213Z,74.75
2022-09-26T22:40:46.255Z,74.62
2022-09-26T22:43:13.268Z,74.80
2022-09-26T22:45:40.348Z,74.62
2022-09-26T22:48:07.347Z,74.06
2022-09-26T22:50:34.496Z,73.87
2022-09-26T22:53:01.210Z,73.99
2022-09-26T22:55:27.887Z,73.54
2022-09-26T22:57:54.572Z,73.94
2022-09-26T23:00:21.238Z,73.08
2022-09-26T23:02:47.982Z,72.88
2022-09-26T23:05:14.839Z,72.68
2022-09-26T23:07:41.515Z,72.44
2022-09-26T23:10:08.338Z,72.06
2022-09-26T23:12:35.011Z,72.36
2022-09-26T23:15:01.709Z,72.03
2022-09-26T23:17:28.915Z,72.26
2022-09-26T23:19:55.602Z,72.18
2022-09-26T23:22:22.413Z,72.17
2022-09-26T23:24:49.329Z,72.01
2022-09-26T23:27:16.244Z,72.03
2022-09-26T23:29:43.134Z,71.68
2022-09-26T23:32:09.999Z,71.89
2022-09-26T23:34:36.666Z,72.03
2022-09-26T23:37:03.392Z,72.51
2022-09-26T23:39:30.323Z,72.55
2022-09-26T23:41:58.268Z,72.19
2022-09-26T23:44:24.979Z,73.12
2022-09-26T23:46:51.719Z,72.82
2022-09-26T23:49:18.428Z,72.66
2022-09-26T23:51:47.441Z,72.74
2022-09-26T23:54:14.441Z,72.53
2022-09-26T23:56:41.487Z,72.60
2022-09-26T23:59:08.738Z,72.50
